createdAt,value
2022-12-15T00:00:23.769Z,5.32
2022-12-15T00:02:13.689Z,5.42
2022-12-15T00:04:13.842Z,5.44
2022-12-15T00:06:04.043Z,5.44
2022-12-15T00:07:53.964Z,5.45
2022-12-15T00:09:43.974Z,5.46
2022-12-15T00:11:34.104Z,5.45
2022-12-15T00:13:30.682Z,5.42
2022-12-15T00:15:21.172Z,5.41
2022-12-15T00:17:11.557Z,5.43
2022-12-15T00:19:01.685Z,5.45
2022-12-15T00:20:52.114Z,5.55
2022-12-15T00:22:42.157Z,5.65
2022-12-15T00:24:32.162Z,5.80
2022-12-15T00:26:22.626Z,5.87
2022-12-15T00:28:15.271Z,5.89
2022-12-15T00:30:05.583Z,5.94
2022-12-15T00:31:56.300Z,5.98
2022-12-15T00:33:46.304Z,6.00
2022-12-15T00:35:36.511Z,6.00
2022-12-15T00:37:27.180Z,6.05
2022-12-15T00:39:03.495Z,6.13
2022-12-15T00:40:35.521Z,6.21
2022-12-15T00:42:07.690Z,6.25
2022-12-15T00:43:40.140Z,6.30
2022-12-15T00:45:11.621Z,6.35
2022-12-15T00:46:55.369Z,6.40
2022-12-15T00:48:27.158Z,6.47
2022-12-15T00:50:18.594Z,6.53
2022-12-15T00:52:10.513Z,6.61
2022-12-15T00:54:01.662Z,6.63
2022-12-15T00:55:53.705Z,6.68
2022-12-15T00:57:45.476Z,6.71
2022-12-15T00:59:37.362Z,6.72
2022-12-15T01:01:41.315Z,6.68
2022-12-15T01:03:41.228Z,6.66
2022-12-15T01:05:54.344Z,6.70
2022-12-15T01:07:49.445Z,6.65
2022-12-15T01:09:49.277Z,6.60
2022-12-15T01:11:43.927Z,6.60
2022-12-15T01:13:34.641Z,6.64
2022-12-15T01:15:25.199Z,6.74
2022-12-15T01:17:15.214Z,6.80
2022-12-15T01:19:07.688Z,6.79
2022-12-15T01:20:45.084Z,6.79
2022-12-15T01:22:16.850Z,6.83
2022-12-15T01:23:49.488Z,6.90
2022-12-15T01:25:22.478Z,6.97
2022-12-15T01:26:54.162Z,7.03
2022-12-15T01:28:25.930Z,7.09
2022-12-15T01:29:57.550Z,7.16
2022-12-15T01:31:29.286Z,7.19
2022-12-15T01:33:00.981Z,7.20
2022-12-15T01:34:32.693Z,7.22
2022-12-15T01:36:04.356Z,7.28
2022-12-15T01:37:36.311Z,7.27
2022-12-15T01:39:08.165Z,7.29
2022-12-15T01:40:45.861Z,7.30
2022-12-15T01:42:17.444Z,7.33
2022-12-15T01:43:49.829Z,7.32
2022-12-15T01:45:24.493Z,7.34
2022-12-15T01:46:56.633Z,7.26
2022-12-15T01:48:31.229Z,7.18
2022-12-15T01:50:02.829Z,7.22
2022-12-15T01:51:40.602Z,7.20
2022-12-15T01:53:12.235Z,7.20
2022-12-15T01:54:48.988Z,7.22
2022-12-15T01:56:20.814Z,7.19
2022-12-15T01:57:52.632Z,7.15
2022-12-15T01:59:25.374Z,7.12
2022-12-15T02:00:57.203Z,7.08
2022-12-15T02:02:29.504Z,7.12
2022-12-15T02:04:01.293Z,7.16
2022-12-15T02:05:33.515Z,7.18
2022-12-15T02:07:05.088Z,7.24
2022-12-15T02:08:36.735Z,7.33
2022-12-15T02:10:10.362Z,7.41
2022-12-15T02:11:46.101Z,7.47
2022-12-15T02:13:30.252Z,7.51
2022-12-15T02:15:17.961Z,7.54
2022-12-15T02:16:52.319Z,7.53
2022-12-15T02:18:35.477Z,7.46
2022-12-15T02:20:16.101Z,7.48
2022-12-15T02:21:56.962Z,7.47
2022-12-15T02:23:40.859Z,7.41
2022-12-15T02:25:44.989Z,7.39
2022-12-15T02:27:34.650Z,7.29
2022-12-15T02:29:13.313Z,7.25
2022-12-15T02:31:33.297Z,7.21
2022-12-15T02:33:09.134Z,7.12
2022-12-15T02:34:53.117Z,7.07
2022-12-15T02:36:26.458Z,7.04
2022-12-15T02:37:57.996Z,7.03
2022-12-15T02:39:29.682Z,7.02
2022-12-15T02:41:02.663Z,7.04
2022-12-15T02:42:34.550Z,7.01
2022-12-15T02:44:26.329Z,7.01
2022-12-15T02:46:01.938Z,6.98
2022-12-15T02:47:39.928Z,6.95
2022-12-15T02:49:17.767Z,6.96
2022-12-15T02:50:51.730Z,6.95
2022-12-15T02:52:26.238Z,7.02
2022-12-15T02:54:00.954Z,6.99
2022-12-15T02:55:38.251Z,6.92
2022-12-15T02:57:36.133Z,6.89
2022-12-15T02:59:11.305Z,6.92
2022-12-15T03:00:44.515Z,6.92
2022-12-15T03:02:16.245Z,6.92
2022-12-15T03:03:47.886Z,6.87
2022-12-15T03:05:19.688Z,6.87
2022-12-15T03:07:00.537Z,6.92
2022-12-15T03:08:32.518Z,6.92
2022-12-15T03:10:04.824Z,6.93
2022-12-15T03:11:36.399Z,6.98
2022-12-15T03:13:08.002Z,7.02
2022-12-15T03:14:39.989Z,7.09
2022-12-15T03:16:11.641Z,7.12
2022-12-15T03:17:43.272Z,7.13
2022-12-15T03:19:15.015Z,7.15
2022-12-15T03:20:46.708Z,7.17
2022-12-15T03:22:18.336Z,7.21
2022-12-15T03:23:49.900Z,7.21
2022-12-15T03:25:21.739Z,7.18
2022-12-15T03:26:53.819Z,7.24
2022-12-15T03:28:25.587Z,7.29
2022-12-15T03:29:57.832Z,7.34
2022-12-15T03:31:29.516Z,7.33
2022-12-15T03:33:01.182Z,7.36
2022-12-15T03:34:32.773Z,7.35
2022-12-15T03:36:04.620Z,7.36
2022-12-15T03:37:36.101Z,7.36
2022-12-15T03:39:07.635Z,7.32
2022-12-15T03:40:39.483Z,7.26
2022-12-15T03:42:11.233Z,7.29
2022-12-15T03:43:42.929Z,7.35
2022-12-15T03:45:16.737Z,7.43
2022-12-15T03:46:48.415Z,7.47
2022-12-15T03:48:19.964Z,7.44
2022-12-15T03:49:51.463Z,7.37
2022-12-15T03:51:22.977Z,7.39
2022-12-15T03:52:55.509Z,7.41
2022-12-15T03:54:27.003Z,7.44
2022-12-15T03:55:58.564Z,7.45
2022-12-15T03:57:30.236Z,7.51
2022-12-15T03:59:01.738Z,7.56
2022-12-15T04:00:33.299Z,7.60
2022-12-15T04:02:04.954Z,7.65
2022-12-15T04:03:36.664Z,7.66
2022-12-15T04:05:08.403Z,7.65
2022-12-15T04:06:39.975Z,7.68
2022-12-15T04:08:12.948Z,7.65
2022-12-15T04:09:44.524Z,7.64
2022-12-15T04:11:16.145Z,7.70
2022-12-15T04:12:47.837Z,7.72
2022-12-15T04:14:19.367Z,7.73
2022-12-15T04:15:51.056Z,7.63
2022-12-15T04:17:22.707Z,7.60
2022-12-15T04:19:14.227Z,7.55
2022-12-15T04:20:45.930Z,7.58
2022-12-15T04:22:21.929Z,7.64
2022-12-15T04:24:12.292Z,7.70
2022-12-15T04:26:02.425Z,7.71
2022-12-15T04:27:57.079Z,7.73
2022-12-15T04:29:49.831Z,7.71
2022-12-15T04:31:46.764Z,7.72
2022-12-15T04:33:37.457Z,7.74
2022-12-15T04:35:28.047Z,7.80
2022-12-15T04:37:18.523Z,7.83
2022-12-15T04:39:08.879Z,7.87
2022-12-15T04:40:59.171Z,7.95
2022-12-15T04:42:49.409Z,8.08
2022-12-15T04:44:39.950Z,8.15
2022-12-15T04:46:30.109Z,8.26
2022-12-15T04:48:20.229Z,8.35
2022-12-15T04:50:10.175Z,8.42
2022-12-15T04:52:03.384Z,8.46
2022-12-15T04:53:53.691Z,8.48
2022-12-15T04:55:43.767Z,8.47
2022-12-15T04:57:33.746Z,8.49
2022-12-15T04:59:23.850Z,8.45
2022-12-15T05:01:15.340Z,8.46
2022-12-15T05:03:05.560Z,8.45
2022-12-15T05:04:55.726Z,8.40
2022-12-15T05:06:48.308Z,8.41
2022-12-15T05:08:39.738Z,8.44
2022-12-15T05:10:29.946Z,8.43
2022-12-15T05:12:20.267Z,8.46
2022-12-15T05:14:10.506Z,8.43
2022-12-15T05:16:00.937Z,8.43
2022-12-15T05:17:51.006Z,8.48
2022-12-15T05:19:41.303Z,8.54
2022-12-15T05:21:31.461Z,8.53
2022-12-15T05:23:21.352Z,8.48
2022-12-15T05:25:11.216Z,8.44
2022-12-15T05:27:01.253Z,8.42
2022-12-15T05:28:51.675Z,8.36
2022-12-15T05:30:41.528Z,8.27
2022-12-15T05:32:13.418Z,8.18
2022-12-15T05:33:45.016Z,8.13
2022-12-15T05:35:16.555Z,8.11
2022-12-15T05:36:48.176Z,8.08
2022-12-15T05:38:19.661Z,8.06
2022-12-15T05:39:51.239Z,8.05
2022-12-15T05:41:23.472Z,8.02
2022-12-15T05:42:57.729Z,8.02
2022-12-15T05:44:29.484Z,8.01
2022-12-15T05:46:07.114Z,8.02
2022-12-15T05:47:38.801Z,8.01
2022-12-15T05:49:11.603Z,8.02
2022-12-15T05:50:43.115Z,8.03
2022-12-15T05:52:14.965Z,8.06
2022-12-15T05:53:46.536Z,8.10
2022-12-15T05:55:18.748Z,8.18
2022-12-15T05:56:50.685Z,8.19
2022-12-15T05:58:22.467Z,8.21
2022-12-15T05:59:54.021Z,8.21
2022-12-15T06:01:26.275Z,8.20
2022-12-15T06:02:58.210Z,8.25
2022-12-15T06:04:29.929Z,8.31
2022-12-15T06:06:01.715Z,8.40
2022-12-15T06:07:34.093Z,8.42
2022-12-15T06:09:05.634Z,8.38
2022-12-15T06:10:37.405Z,8.41
2022-12-15T06:12:08.964Z,8.41
2022-12-15T06:13:40.682Z,8.38
2022-12-15T06:15:12.343Z,8.39
2022-12-15T06:16:50.829Z,8.39
2022-12-15T06:18:22.914Z,8.40
2022-12-15T06:19:54.617Z,8.41
2022-12-15T06:21:27.417Z,8.39
2022-12-15T06:22:59.130Z,8.38
2022-12-15T06:24:30.654Z,8.41
2022-12-15T06:26:15.714Z,8.44
2022-12-15T06:27:47.315Z,8.47
2022-12-15T06:29:19.090Z,8.48
2022-12-15T06:30:52.433Z,8.51
2022-12-15T06:32:24.059Z,8.50
2022-12-15T06:34:01.403Z,8.49
2022-12-15T06:35:39.918Z,8.47
2022-12-15T06:37:11.579Z,8.48
2022-12-15T06:38:43.845Z,8.46
2022-12-15T06:40:15.405Z,8.43
2022-12-15T06:41:46.971Z,8.44
2022-12-15T06:43:18.596Z,8.43
2022-12-15T06:44:50.470Z,8.44
2022-12-15T06:46:22.195Z,8.46
2022-12-15T06:47:59.522Z,8.46
2022-12-15T06:49:32.849Z,8.49
2022-12-15T06:51:05.147Z,8.57
2022-12-15T06:52:36.754Z,8.67
2022-12-15T06:54:09.163Z,8.68
2022-12-15T06:55:41.015Z,8.64
2022-12-15T06:57:12.577Z,8.60
2022-12-15T06:58:44.175Z,8.64
2022-12-15T07:00:16.055Z,8.74
2022-12-15T07:01:47.805Z,8.78
2022-12-15T07:03:19.706Z,8.75
2022-12-15T07:04:51.612Z,8.76
2022-12-15T07:06:23.284Z,8.82
2022-12-15T07:07:54.781Z,8.86
2022-12-15T07:09:26.526Z,8.89
2022-12-15T07:10:58.166Z,8.86
2022-12-15T07:12:29.716Z,8.87
2022-12-15T07:14:01.221Z,8.85
2022-12-15T07:15:32.766Z,8.91
2022-12-15T07:17:04.264Z,8.91
2022-12-15T07:18:35.898Z,8.97
2022-12-15T07:20:07.776Z,9.00
2022-12-15T07:21:39.398Z,9.05
2022-12-15T07:23:10.947Z,9.16
2022-12-15T07:24:42.542Z,9.16
2022-12-15T07:26:14.104Z,9.13
2022-12-15T07:27:45.919Z,9.18
2022-12-15T07:29:23.016Z,9.24
2022-12-15T07:30:55.111Z,9.24
2022-12-15T07:32:26.679Z,9.20
2022-12-15T07:33:58.708Z,9.16
2022-12-15T07:35:30.563Z,9.19
2022-12-15T07:37:02.088Z,9.21
2022-12-15T07:38:33.686Z,9.22
2022-12-15T07:40:05.493Z,9.26
2022-12-15T07:41:37.924Z,9.34
2022-12-15T07:43:09.475Z,9.35
2022-12-15T07:44:41.163Z,9.38
2022-12-15T07:46:12.764Z,9.43
2022-12-15T07:47:44.338Z,9.38
2022-12-15T07:49:17.074Z,9.37
2022-12-15T07:50:48.742Z,9.45
2022-12-15T07:52:22.052Z,9.45
2022-12-15T07:53:53.555Z,9.50
2022-12-15T07:55:43.629Z,9.50
2022-12-15T07:57:17.289Z,9.47
2022-12-15T07:58:48.970Z,9.44
2022-12-15T08:00:20.859Z,9.38
2022-12-15T08:01:53.898Z,9.38
2022-12-15T08:03:26.039Z,9.38
2022-12-15T08:04:57.682Z,9.36
2022-12-15T08:06:29.269Z,9.33
2022-12-15T08:08:00.845Z,9.35
2022-12-15T08:09:32.504Z,9.41
2022-12-15T08:11:07.300Z,9.42
2022-12-15T08:12:39.072Z,9.46
2022-12-15T08:14:17.018Z,9.47
2022-12-15T08:15:52.884Z,9.48
2022-12-15T08:17:24.392Z,9.52
2022-12-15T08:18:57.343Z,9.58
2022-12-15T08:20:30.603Z,9.67
2022-12-15T08:22:02.264Z,9.74
2022-12-15T08:23:34.406Z,9.79
2022-12-15T08:25:06.242Z,9.73
2022-12-15T08:26:40.636Z,9.73
2022-12-15T08:28:12.267Z,9.73
2022-12-15T08:29:52.098Z,9.74
2022-12-15T08:31:24.101Z,9.82
2022-12-15T08:32:55.703Z,9.90
2022-12-15T08:34:27.284Z,9.90
2022-12-15T08:36:03.311Z,9.86
2022-12-15T08:37:35.100Z,9.86
2022-12-15T08:39:06.664Z,9.89
2022-12-15T08:40:38.231Z,10.00
2022-12-15T08:42:09.834Z,10.01
2022-12-15T08:43:48.258Z,10.05
2022-12-15T08:45:20.690Z,10.07
2022-12-15T08:46:52.190Z,10.08
2022-12-15T08:48:23.781Z,10.10
2022-12-15T08:49:55.852Z,10.17
2022-12-15T08:51:28.388Z,10.25
2022-12-15T08:53:28.879Z,10.26
2022-12-15T08:54:51.502Z,10.27
2022-12-15T08:56:23.367Z,10.30
2022-12-15T08:57:54.922Z,10.35
2022-12-15T08:59:26.625Z,10.39
2022-12-15T09:01:01.848Z,10.38
2022-12-15T09:02:33.575Z,10.36
2022-12-15T09:04:05.266Z,10.43
2022-12-15T09:05:37.297Z,10.54
2022-12-15T09:07:09.040Z,10.60
2022-12-15T09:08:40.559Z,10.56
2022-12-15T09:10:12.126Z,10.56
2022-12-15T09:11:46.753Z,10.52
2022-12-15T09:13:18.322Z,10.52
2022-12-15T09:14:49.922Z,10.59
2022-12-15T09:16:21.601Z,10.70
2022-12-15T09:17:53.219Z,10.82
2022-12-15T09:19:25.400Z,10.92
2022-12-15T09:21:00.596Z,10.99
2022-12-15T09:22:32.339Z,10.98
2022-12-15T09:24:04.118Z,11.00
2022-12-15T09:25:35.669Z,11.02
2022-12-15T09:27:07.805Z,11.11
2022-12-15T09:28:39.401Z,11.10
2022-12-15T09:30:11.151Z,11.13
2022-12-15T09:31:44.841Z,11.19
2022-12-15T09:33:16.330Z,11.21
2022-12-15T09:34:47.861Z,11.15
2022-12-15T09:36:22.433Z,11.09
2022-12-15T09:37:54.414Z,11.02
2022-12-15T09:39:26.045Z,11.03
2022-12-15T09:40:57.648Z,11.03
2022-12-15T09:42:29.593Z,11.05
2022-12-15T09:44:01.296Z,11.09
2022-12-15T09:45:34.736Z,11.02
2022-12-15T09:47:16.028Z,10.95
2022-12-15T09:48:47.925Z,10.86
2022-12-15T09:50:19.913Z,10.81
2022-12-15T09:51:57.808Z,10.82
2022-12-15T09:53:54.069Z,10.94
2022-12-15T09:55:24.824Z,10.99
2022-12-15T09:56:57.035Z,11.06
2022-12-15T09:58:33.614Z,11.06
2022-12-15T10:00:07.589Z,11.01
2022-12-15T10:01:43.751Z,10.97
2022-12-15T10:03:24.195Z,10.95
2022-12-15T10:04:58.011Z,10.98
2022-12-15T10:06:33.054Z,11.02
2022-12-15T10:08:05.066Z,11.07
2022-12-15T10:12:26.806Z,11.17
2022-12-15T10:16:52.953Z,11.23
2022-12-15T10:18:30.940Z,11.26
2022-12-15T10:20:22.321Z,11.27
2022-12-15T10:21:53.946Z,11.35
2022-12-15T10:23:25.585Z,11.34
2022-12-15T10:25:09.808Z,11.37
2022-12-15T10:26:42.307Z,11.34
2022-12-15T10:28:17.065Z,11.32
2022-12-15T10:30:01.136Z,11.33
2022-12-15T10:31:35.587Z,11.32
2022-12-15T10:33:25.582Z,11.30
2022-12-15T10:34:57.348Z,11.32
2022-12-15T10:36:29.776Z,11.33
2022-12-15T10:38:02.710Z,11.34
2022-12-15T10:39:40.995Z,11.36
2022-12-15T10:41:16.368Z,11.38
2022-12-15T10:42:51.018Z,11.39
2022-12-15T10:44:30.284Z,11.36
2022-12-15T10:46:09.556Z,11.39
2022-12-15T10:47:41.194Z,11.43
2022-12-15T10:49:12.948Z,11.47
2022-12-15T10:50:44.873Z,11.54
2022-12-15T10:52:20.291Z,11.54
2022-12-15T10:53:52.817Z,11.59
2022-12-15T10:55:37.235Z,11.65
2022-12-15T10:57:29.285Z,11.70
2022-12-15T10:59:03.778Z,11.74
2022-12-15T11:00:35.529Z,11.77
2022-12-15T11:02:25.785Z,11.84
2022-12-15T11:03:58.106Z,11.88
2022-12-15T11:05:29.989Z,11.89
2022-12-15T11:07:02.263Z,11.93
2022-12-15T11:08:33.957Z,11.96
2022-12-15T11:10:13.387Z,11.95
2022-12-15T11:12:11.854Z,11.99
2022-12-15T11:14:03.581Z,12.10
2022-12-15T11:15:37.743Z,12.15
2022-12-15T11:17:36.947Z,12.16
2022-12-15T11:19:11.800Z,12.28
2022-12-15T11:20:48.642Z,12.34
2022-12-15T11:22:23.165Z,12.49
2022-12-15T11:24:04.224Z,12.65
2022-12-15T11:25:39.128Z,12.81
2022-12-15T11:27:10.847Z,13.01
2022-12-15T11:28:51.538Z,13.20
2022-12-15T11:30:43.437Z,13.36
2022-12-15T11:32:15.644Z,13.54
2022-12-15T11:33:47.184Z,13.63
2022-12-15T11:35:22.768Z,13.78
2022-12-15T11:37:04.232Z,13.86
2022-12-15T11:38:35.890Z,13.85
2022-12-15T11:40:16.825Z,13.82
2022-12-15T11:41:58.042Z,13.88
2022-12-15T11:43:39.808Z,13.97
2022-12-15T11:45:14.538Z,14.02
2022-12-15T11:46:55.472Z,14.01
2022-12-15T11:48:28.250Z,14.04
2022-12-15T11:50:03.589Z,14.13
2022-12-15T11:51:36.375Z,14.23
2022-12-15T11:53:14.040Z,14.38
2022-12-15T11:54:53.702Z,14.56
2022-12-15T11:56:34.154Z,14.70
2022-12-15T11:58:14.719Z,14.90
2022-12-15T11:59:46.526Z,15.06
2022-12-15T12:01:38.199Z,15.18
2022-12-15T12:03:10.100Z,15.40
2022-12-15T12:05:02.039Z,15.52
2022-12-15T12:06:35.370Z,15.48
2022-12-15T12:08:16.401Z,15.41
2022-12-15T12:10:06.548Z,15.33
2022-12-15T12:11:43.036Z,15.36
2022-12-15T12:13:20.955Z,15.41
2022-12-15T12:15:11.273Z,15.54
2022-12-15T12:17:08.505Z,15.76
2022-12-15T12:18:41.188Z,15.90
2022-12-15T12:20:18.600Z,15.79
2022-12-15T12:21:51.379Z,15.78
2022-12-15T12:23:24.940Z,15.77
2022-12-15T12:24:56.814Z,15.76
2022-12-15T12:26:40.877Z,15.72
2022-12-15T12:28:20.918Z,15.69
2022-12-15T12:30:06.640Z,15.66
2022-12-15T12:31:38.511Z,15.54
2022-12-15T12:33:19.165Z,15.47
2022-12-15T12:34:51.176Z,15.38
2022-12-15T12:36:23.050Z,15.32
2022-12-15T12:38:01.386Z,15.21
2022-12-15T12:39:35.247Z,15.13
2022-12-15T12:41:08.089Z,15.07
2022-12-15T12:42:58.291Z,15.01
2022-12-15T12:44:35.263Z,15.03
2022-12-15T12:46:13.254Z,15.06
2022-12-15T12:47:47.089Z,15.05
2022-12-15T12:49:30.529Z,15.13
2022-12-15T12:51:13.007Z,15.17
2022-12-15T12:52:51.405Z,15.24
2022-12-15T12:54:38.807Z,15.36
2022-12-15T12:56:28.799Z,15.54
2022-12-15T12:58:00.319Z,15.74
2022-12-15T12:59:36.714Z,15.90
2022-12-15T13:01:11.480Z,16.07
2022-12-15T13:02:46.454Z,16.24
2022-12-15T13:04:30.254Z,16.30
2022-12-15T13:06:01.805Z,16.29
2022-12-15T13:07:38.029Z,16.31
2022-12-15T13:09:18.258Z,16.35
2022-12-15T13:10:50.765Z,16.46
2022-12-15T13:12:56.846Z,16.52
2022-12-15T13:14:40.726Z,16.67
2022-12-15T13:16:12.374Z,16.81
2022-12-15T13:17:44.431Z,16.90
2022-12-15T13:19:17.073Z,16.98
2022-12-15T13:20:50.755Z,17.07
2022-12-15T13:22:42.792Z,17.11
2022-12-15T13:24:26.706Z,17.22
2022-12-15T13:27:53.267Z,17.43
2022-12-15T13:29:24.869Z,17.42
2022-12-15T13:31:15.052Z,17.43
2022-12-15T13:32:47.188Z,17.35
2022-12-15T13:34:20.446Z,17.28
2022-12-15T13:35:52.373Z,17.22
2022-12-15T13:37:43.175Z,17.21
2022-12-15T13:39:17.327Z,17.16
2022-12-15T13:40:52.059Z,17.09
2022-12-15T13:44:20.900Z,16.95
2022-12-15T13:45:54.187Z,16.96
2022-12-15T13:47:26.704Z,16.93
2022-12-15T13:49:27.644Z,16.86
2022-12-15T13:51:03.742Z,16.74
2022-12-15T13:53:17.434Z,16.68
2022-12-15T13:54:36.155Z,16.58
2022-12-15T13:56:11.489Z,16.53
2022-12-15T13:57:50.181Z,16.44
2022-12-15T13:59:34.619Z,16.38
2022-12-15T14:01:16.391Z,16.31
2022-12-15T14:02:48.013Z,16.29
2022-12-15T14:04:19.943Z,16.20
2022-12-15T14:05:58.884Z,16.07
2022-12-15T14:07:30.744Z,15.90
2022-12-15T14:09:02.499Z,15.75
2022-12-15T14:10:36.830Z,15.65
2022-12-15T14:12:08.808Z,15.54
2022-12-15T14:13:41.031Z,15.49
2022-12-15T14:15:13.950Z,15.45
2022-12-15T14:16:45.650Z,15.38
2022-12-15T14:18:23.334Z,15.25
2022-12-15T14:19:55.043Z,15.20
2022-12-15T14:21:27.132Z,15.19
2022-12-15T14:22:59.036Z,15.12
2022-12-15T14:24:40.510Z,15.06
2022-12-15T14:26:13.429Z,14.95
2022-12-15T14:27:45.089Z,14.85
2022-12-15T14:29:22.404Z,14.73
2022-12-15T14:30:55.874Z,14.65
2022-12-15T14:32:27.611Z,14.53
2022-12-15T14:34:23.083Z,14.46
2022-12-15T14:35:55.613Z,14.37
2022-12-15T14:37:27.433Z,14.29
2022-12-15T14:39:05.988Z,14.18
2022-12-15T14:40:38.032Z,14.12
2022-12-15T14:42:16.646Z,14.04
2022-12-15T14:44:31.536Z,13.97
2022-12-15T14:45:41.811Z,13.96
2022-12-15T14:47:17.319Z,13.92
2022-12-15T14:48:57.318Z,13.87
2022-12-15T14:50:29.402Z,13.81
2022-12-15T14:52:01.767Z,13.74
2022-12-15T14:53:36.600Z,13.71
2022-12-15T14:55:26.359Z,13.68
2022-12-15T14:57:01.197Z,13.61
2022-12-15T14:58:35.695Z,13.55
2022-12-15T15:00:26.343Z,13.51
2022-12-15T15:02:30.681Z,13.39
2022-12-15T15:03:11.248Z,17.30
2022-12-15T15:03:13.202Z,17.04
2022-12-15T15:04:06.157Z,13.31
2022-12-15T15:05:37.837Z,13.25
2022-12-15T15:07:16.742Z,13.23
2022-12-15T15:08:49.435Z,13.22
2022-12-15T15:10:24.741Z,13.20
2022-12-15T15:12:02.083Z,13.17
2022-12-15T15:13:39.976Z,13.15
2022-12-15T15:15:14.945Z,13.09
2022-12-15T15:16:47.154Z,13.01
2022-12-15T15:18:18.850Z,12.94
2022-12-15T15:19:50.509Z,12.86
2022-12-15T15:21:23.205Z,12.81
2022-12-15T15:23:02.724Z,12.81
2022-12-15T15:24:35.638Z,12.82
2022-12-15T15:26:07.933Z,12.82
2022-12-15T15:27:40.070Z,12.83
2022-12-15T15:29:49.953Z,12.85
2022-12-15T15:31:28.645Z,12.78
2022-12-15T15:33:02.231Z,12.71
2022-12-15T15:34:34.947Z,12.60
2022-12-15T15:36:06.924Z,12.51
2022-12-15T15:37:38.523Z,12.43
2022-12-15T15:39:11.018Z,12.38
2022-12-15T15:40:42.603Z,12.37
2022-12-15T15:42:15.070Z,12.36
2022-12-15T15:43:46.893Z,12.34
2022-12-15T15:45:18.670Z,12.29
2022-12-15T15:46:51.057Z,12.26
2022-12-15T15:48:25.810Z,12.23
2022-12-15T15:49:58.478Z,12.21
2022-12-15T15:51:30.517Z,12.14
2022-12-15T15:53:02.701Z,12.09
2022-12-15T15:54:36.442Z,12.04
2022-12-15T15:56:10.743Z,12.00
2022-12-15T15:57:42.357Z,11.94
2022-12-15T15:59:15.146Z,11.92
2022-12-15T16:00:46.976Z,11.92
2022-12-15T16:02:18.805Z,11.91
2022-12-15T16:03:50.750Z,11.94
2022-12-15T16:05:22.481Z,11.96
2022-12-15T16:06:54.144Z,12.02
2022-12-15T16:08:27.830Z,12.04
2022-12-15T16:09:59.509Z,12.03
2022-12-15T16:11:32.083Z,12.00
2022-12-15T16:13:04.183Z,11.98
2022-12-15T16:14:35.890Z,11.98
2022-12-15T16:16:09.987Z,11.96
2022-12-15T16:17:42.279Z,11.92
2022-12-15T16:19:14.154Z,11.85
2022-12-15T16:20:46.791Z,11.78
2022-12-15T16:22:19.690Z,11.70
2022-12-15T16:23:51.425Z,11.65
2022-12-15T16:25:50.356Z,11.61
2022-12-15T16:27:23.148Z,11.58
2022-12-15T16:28:54.845Z,11.60
2022-12-15T16:30:28.023Z,11.62
2022-12-15T16:32:01.675Z,11.63
2022-12-15T16:33:33.244Z,11.65
2022-12-15T16:35:05.485Z,11.60
2022-12-15T16:36:41.217Z,11.60
2022-12-15T16:38:14.875Z,11.61
2022-12-15T16:39:46.652Z,11.62
2022-12-15T16:41:18.722Z,11.60
2022-12-15T16:42:59.919Z,11.56
2022-12-15T16:44:32.103Z,11.52
2022-12-15T16:46:03.979Z,11.53
2022-12-15T16:47:35.809Z,11.50
2022-12-15T16:49:07.533Z,11.46
2022-12-15T16:50:40.156Z,11.43
2022-12-15T16:52:17.849Z,11.42
2022-12-15T16:53:49.507Z,11.42
2022-12-15T16:55:25.355Z,11.41
2022-12-15T16:56:57.543Z,11.36
2022-12-15T16:58:32.353Z,11.35
2022-12-15T17:00:10.599Z,11.35
2022-12-15T17:01:42.433Z,11.36
2022-12-15T17:03:18.360Z,11.37
2022-12-15T17:04:50.656Z,11.39
2022-12-15T17:06:22.218Z,11.37
2022-12-15T17:07:55.695Z,11.37
2022-12-15T17:09:27.768Z,11.38
2022-12-15T17:10:59.694Z,11.40
2022-12-15T17:12:33.191Z,11.42
2022-12-15T17:14:06.737Z,11.43
2022-12-15T17:15:40.371Z,11.44
2022-12-15T17:17:15.469Z,11.48
2022-12-15T17:18:47.562Z,11.49
2022-12-15T17:20:28.942Z,11.49
2022-12-15T17:22:01.350Z,11.49
2022-12-15T17:23:33.380Z,11.51
2022-12-15T17:25:05.963Z,11.45
2022-12-15T17:26:37.746Z,11.45
2022-12-15T17:28:14.318Z,11.42
2022-12-15T17:29:45.870Z,11.45
2022-12-15T17:31:18.965Z,11.49
2022-12-15T17:32:52.540Z,11.49
2022-12-15T17:34:32.833Z,11.51
2022-12-15T17:36:06.372Z,11.49
2022-12-15T17:37:39.810Z,11.47
2022-12-15T17:39:11.386Z,11.44
2022-12-15T17:40:43.055Z,11.44
2022-12-15T17:42:16.689Z,11.44
2022-12-15T17:44:09.733Z,11.45
2022-12-15T17:45:47.445Z,11.45
2022-12-15T17:47:20.009Z,11.44
2022-12-15T17:48:53.889Z,11.51
2022-12-15T17:50:32.194Z,11.57
2022-12-15T17:52:05.415Z,11.62
2022-12-15T17:53:38.751Z,11.67
2022-12-15T17:55:21.025Z,11.68
2022-12-15T17:56:52.679Z,11.65
2022-12-15T17:58:29.116Z,11.58
2022-12-15T18:00:02.849Z,11.50
2022-12-15T18:01:34.613Z,11.42
2022-12-15T18:03:06.675Z,11.36
2022-12-15T18:04:39.466Z,11.33
2022-12-15T18:06:15.884Z,11.35
2022-12-15T18:07:48.567Z,11.34
2022-12-15T18:09:22.503Z,11.32
2022-12-15T18:10:58.709Z,11.30
2022-12-15T18:12:30.599Z,11.28
2022-12-15T18:14:02.439Z,11.29
2022-12-15T18:15:34.425Z,11.30
2022-12-15T18:17:12.124Z,11.33
2022-12-15T18:18:44.364Z,11.34
2022-12-15T18:20:19.282Z,11.35
2022-12-15T18:21:51.836Z,11.34
2022-12-15T18:23:32.668Z,11.35
2022-12-15T18:25:07.198Z,11.36
2022-12-15T18:26:44.812Z,11.34
2022-12-15T18:28:22.653Z,11.32
2022-12-15T18:29:55.237Z,11.33
2022-12-15T18:31:27.241Z,11.33
2022-12-15T18:33:00.140Z,11.34
2022-12-15T18:34:32.784Z,11.33
2022-12-15T18:36:04.707Z,11.31
2022-12-15T18:37:37.858Z,11.31
2022-12-15T18:39:27.517Z,11.33
2022-12-15T18:41:00.037Z,11.33
2022-12-15T18:42:32.193Z,11.40
2022-12-15T18:44:04.227Z,11.45
2022-12-15T18:45:36.040Z,11.47
2022-12-15T18:47:15.751Z,11.50
2022-12-15T18:48:47.502Z,11.52
2022-12-15T18:50:27.845Z,11.52
2022-12-15T18:51:59.614Z,11.52
2022-12-15T18:53:35.836Z,11.52
2022-12-15T18:55:19.424Z,11.47
2022-12-15T18:56:57.472Z,11.43
2022-12-15T18:58:30.518Z,11.41
2022-12-15T19:00:11.578Z,11.40
2022-12-15T19:01:44.439Z,11.43
2022-12-15T19:03:19.162Z,11.45
2022-12-15T19:04:55.757Z,11.49
2022-12-15T19:06:35.064Z,11.50
2022-12-15T19:08:16.148Z,11.53
2022-12-15T19:09:49.121Z,11.55
2022-12-15T19:11:32.676Z,11.58
2022-12-15T19:13:07.108Z,11.62
2022-12-15T19:14:42.494Z,11.60
2022-12-15T19:16:17.154Z,11.56
2022-12-15T19:18:08.333Z,11.58
2022-12-15T19:19:59.255Z,11.63
2022-12-15T19:21:52.348Z,11.64
2022-12-15T19:23:24.647Z,11.61
2022-12-15T19:24:59.249Z,11.61
2022-12-15T19:26:32.445Z,11.59
2022-12-15T19:28:08.961Z,11.55
2022-12-15T19:29:41.006Z,11.54
2022-12-15T19:31:13.458Z,11.49
2022-12-15T19:32:45.761Z,11.43
2022-12-15T19:34:17.379Z,11.41
2022-12-15T19:35:51.170Z,11.37
2022-12-15T19:37:24.534Z,11.34
2022-12-15T19:38:56.328Z,11.32
2022-12-15T19:40:30.614Z,11.33
2022-12-15T19:42:03.118Z,11.35
2022-12-15T19:43:35.362Z,11.36
2022-12-15T19:45:14.846Z,11.31
2022-12-15T19:46:46.572Z,11.22
2022-12-15T19:48:23.093Z,11.19
2022-12-15T19:49:55.793Z,11.22
2022-12-15T19:51:29.304Z,11.23
2022-12-15T19:53:01.878Z,11.24
2022-12-15T19:54:33.550Z,11.24
2022-12-15T19:56:05.487Z,11.13
2022-12-15T19:57:37.208Z,11.05
2022-12-15T19:59:15.944Z,10.99
2022-12-15T20:00:47.733Z,10.95
2022-12-15T20:02:20.393Z,10.99
2022-12-15T20:03:53.271Z,10.97
2022-12-15T20:05:24.975Z,11.01
2022-12-15T20:06:56.703Z,11.03
2022-12-15T20:08:31.556Z,11.07
2022-12-15T20:10:05.435Z,11.13
2022-12-15T20:11:37.157Z,11.20
2022-12-15T20:13:11.203Z,11.23
2022-12-15T20:14:44.165Z,11.27
2022-12-15T20:16:19.266Z,11.31
2022-12-15T20:17:56.347Z,11.36
2022-12-15T20:19:28.505Z,11.36
2022-12-15T20:21:00.356Z,11.34
2022-12-15T20:22:32.440Z,11.35
2022-12-15T20:24:07.875Z,11.28
2022-12-15T20:25:40.490Z,11.23
2022-12-15T20:27:13.176Z,11.18
2022-12-15T20:28:44.831Z,11.05
2022-12-15T20:30:20.337Z,10.96
2022-12-15T20:31:55.308Z,10.89
2022-12-15T20:33:27.184Z,10.84
2022-12-15T20:34:59.189Z,10.82
2022-12-15T20:36:30.767Z,10.79
2022-12-15T20:38:34.409Z,10.81
2022-12-15T20:40:10.316Z,10.81
2022-12-15T20:41:42.059Z,10.78
2022-12-15T20:43:14.573Z,10.74
2022-12-15T20:44:46.425Z,10.78
2022-12-15T20:46:26.339Z,10.80
2022-12-15T20:47:58.242Z,10.79
2022-12-15T20:49:31.981Z,10.81
2022-12-15T20:51:08.841Z,10.81
2022-12-15T20:52:41.379Z,10.83
2022-12-15T20:54:17.792Z,10.84
2022-12-15T20:55:49.616Z,10.84
2022-12-15T20:57:22.794Z,10.86
2022-12-15T20:58:54.815Z,10.86
2022-12-15T21:00:26.468Z,10.83
2022-12-15T21:01:58.459Z,10.86
2022-12-15T21:03:36.304Z,10.82
2022-12-15T21:05:10.149Z,10.81
2022-12-15T21:06:43.961Z,10.76